Time;durP1;ratioP1;P1;durP2;ratioP2;P2;SDS_P1;SDS_P2;PMS_P1;PMS_P2;Temp;Humidity;BMP_temperature;BMP_pressure;BME280_temperature;BME280_humidity;BME280_pressure;Samples;Min_cycle;Max_cycle;Signal;HPM_P1;HPM_P2
2023/01/26 00:01:20;;;;;;;26.40;13.05;;;;;;;1.98;100.00;99427.22;4533335;31;20114;-72
2023/01/26 00:03:51;;;;;;;28.25;12.13;;;;;;;1.88;100.00;99425.03;4532061;31;20083;-72
2023/01/26 00:06:19;;;;;;;26.20;11.95;;;;;;;1.87;100.00;99417.34;4533017;31;20624;-72
2023/01/26 00:08:48;;;;;;;29.10;11.12;;;;;;;1.92;100.00;99410.22;4533222;31;20511;-72
2023/01/26 00:11:17;;;;;;;25.02;10.93;;;;;;;1.98;100.00;99416.88;4518347;31;20155;-72
2023/01/26 00:13:49;;;;;;;21.95;11.25;;;;;;;2.02;100.00;99416.66;4517046;31;20079;-72
2023/01/26 00:16:16;;;;;;;28.67;10.82;;;;;;;2.00;100.00;99412.47;4517564;31;20542;-72
2023/01/26 00:18:43;;;;;;;23.90;10.95;;;;;;;2.04;100.00;99408.84;4517027;31;20126;-72
2023/01/26 00:21:13;;;;;;;28.00;11.85;;;;;;;2.04;100.00;99414.00;4517815;31;20513;-72
2023/01/26 00:23:41;;;;;;;25.95;11.20;;;;;;;1.99;100.00;99410.81;4533321;31;20167;-72
2023/01/26 00:26:10;;;;;;;28.05;11.88;;;;;;;1.95;100.00;99405.78;4533182;31;20159;-72
2023/01/26 00:28:37;;;;;;;25.52;10.57;;;;;;;2.00;100.00;99404.72;4533312;31;20099;-72
2023/01/26 00:31:07;;;;;;;27.35;10.98;;;;;;;2.04;100.00;99406.25;4532931;31;20100;-72
2023/01/26 00:33:35;;;;;;;24.77;11.02;;;;;;;2.09;100.00;99396.53;4533461;31;20079;-72
2023/01/26 00:36:03;;;;;;;26.75;11.93;;;;;;;2.16;100.00;99394.53;4532717;31;20181;-72
2023/01/26 00:38:31;;;;;;;27.70;11.63;;;;;;;2.09;100.00;99392.25;4533040;31;20114;-72
2023/01/26 00:41:01;;;;;;;21.65;10.90;;;;;;;2.19;100.00;99397.81;4533112;31;20516;-72
2023/01/26 00:43:28;;;;;;;28.75;11.05;;;;;;;2.11;100.00;99395.59;4532774;31;20099;-72
2023/01/26 00:45:56;;;;;;;27.55;11.73;;;;;;;2.18;100.00;99397.91;4533194;31;20103;-72
2023/01/26 00:48:23;;;;;;;23.27;10.63;;;;;;;2.16;100.00;99400.53;4533074;31;20087;-72
2023/01/26 00:50:52;;;;;;;25.42;11.07;;;;;;;2.17;100.00;99401.41;4533082;31;20083;-72
2023/01/26 00:53:19;;;;;;;27.13;12.10;;;;;;;2.16;100.00;99391.97;4533089;31;20103;-72
2023/01/26 00:55:46;;;;;;;23.87;10.63;;;;;;;2.15;100.00;99388.56;4532973;31;20107;-72
2023/01/26 00:58:13;;;;;;;24.20;10.98;;;;;;;2.19;100.00;99386.66;4532878;31;20422;-72
2023/01/26 01:00:41;;;;;;;24.65;10.88;;;;;;;2.04;100.00;99388.16;4532900;31;20099;-72
2023/01/26 01:03:09;;;;;;;35.45;11.35;;;;;;;2.02;100.00;99387.41;4532929;31;20139;-72
2023/01/26 01:05:37;;;;;;;34.97;11.43;;;;;;;2.11;100.00;99385.25;4532933;31;20119;-72
2023/01/26 01:08:04;;;;;;;28.33;11.05;;;;;;;2.11;100.00;99382.66;4532726;31;20102;-72
2023/01/26 01:10:33;;;;;;;22.92;11.27;;;;;;;2.20;100.00;99383.19;4523025;31;20358;-72
2023/01/26 01:13:01;;;;;;;20.02;9.85;;;;;;;2.19;100.00;99381.47;4516606;31;20099;-72
2023/01/26 01:15:28;;;;;;;21.73;9.45;;;;;;;2.19;100.00;99378.91;4516764;31;20119;-72
2023/01/26 01:17:55;;;;;;;19.77;9.35;;;;;;;2.24;100.00;99382.97;4516906;31;20628;-72
2023/01/26 01:20:22;;;;;;;27.25;9.90;;;;;;;2.13;100.00;99377.41;4516685;31;20164;-72
2023/01/26 01:22:51;;;;;;;24.42;10.02;;;;;;;2.10;100.00;99375.81;4528111;31;20158;-72
2023/01/26 01:25:18;;;;;;;22.90;8.68;;;;;;;2.16;100.00;99373.88;4532854;31;20091;-72
2023/01/26 01:27:45;;;;;;;23.23;9.25;;;;;;;2.11;100.00;99374.91;4532770;31;20174;-72
2023/01/26 01:30:12;;;;;;;22.52;9.95;;;;;;;2.03;100.00;99371.84;4532902;31;20694;-72
2023/01/26 01:32:40;;;;;;;19.23;9.65;;;;;;;2.09;100.00;99371.56;4531222;31;20181;-72
2023/01/26 01:35:08;;;;;;;18.62;8.63;;;;;;;2.14;100.00;99363.59;4532542;31;20082;-72
2023/01/26 01:37:35;;;;;;;23.27;9.68;;;;;;;2.15;100.00;99372.19;4532637;31;20108;-72
2023/01/26 01:40:03;;;;;;;23.08;10.13;;;;;;;2.09;100.00;99360.37;4532803;31;20114;-72
2023/01/26 01:42:32;;;;;;;21.80;9.80;;;;;;;2.10;100.00;99364.62;4532432;31;20150;-72
2023/01/26 01:45:33;;;;;;;23.40;10.13;;;;;;;2.05;100.00;99361.44;4532428;31;20095;-72
2023/01/26 01:48:03;;;;;;;18.60;9.18;;;;;;;1.93;100.00;99361.06;4531187;31;20456;-72
2023/01/26 01:50:36;;;;;;;25.75;10.10;;;;;;;1.91;100.00;99349.97;4531282;31;20110;-72
2023/01/26 01:53:04;;;;;;;24.50;10.35;;;;;;;1.95;100.00;99353.22;4531185;31;20158;-72
2023/01/26 01:55:32;;;;;;;25.88;11.07;;;;;;;2.09;100.00;99348.31;4532477;31;20103;-72
2023/01/26 01:58:00;;;;;;;26.58;11.43;;;;;;;1.94;100.00;99357.56;4532428;31;20151;-72
2023/01/26 02:00:28;;;;;;;24.80;10.02;;;;;;;2.05;100.00;99349.34;4530973;31;20547;-72
2023/01/26 02:03:13;;;;;;;26.00;11.18;;;;;;;2.10;100.00;99336.22;4532275;31;20578;-72
2023/01/26 02:06:05;;;;;;;26.60;11.12;;;;;;;2.08;100.00;99340.63;4532569;31;20422;-72
2023/01/26 02:08:37;;;;;;;25.12;10.70;;;;;;;2.02;100.00;99333.16;4466191;32;20502;-72
2023/01/26 02:11:09;;;;;;;26.30;11.48;;;;;;;2.12;100.00;99335.25;4453169;32;20084;-72
2023/01/26 02:13:36;;;;;;;23.17;10.68;;;;;;;2.17;100.00;99331.63;4450847;32;21122;-72
2023/01/26 02:16:04;;;;;;;22.55;11.52;;;;;;;2.23;100.00;99329.56;4438173;32;20109;-72
2023/01/26 02:18:32;;;;;;;32.67;13.43;;;;;;;2.18;100.00;99326.38;4450960;32;20123;-72
2023/01/26 02:21:02;;;;;;;21.87;11.68;;;;;;;2.08;100.00;99317.38;4450953;32;20138;-72
2023/01/26 02:23:47;;;;;;;24.35;10.13;;;;;;;2.07;100.00;99321.66;4466152;32;20088;-72
2023/01/26 02:26:20;;;;;;;23.75;10.10;;;;;;;2.00;100.00;99316.84;4466388;32;20127;-72
2023/01/26 02:28:49;;;;;;;24.83;11.30;;;;;;;2.02;100.00;99312.47;4466499;32;20127;-72
2023/01/26 02:31:17;;;;;;;25.73;11.82;;;;;;;2.06;100.00;99309.69;4466197;32;20141;-72
2023/01/26 02:33:45;;;;;;;32.40;12.07;;;;;;;2.08;100.00;99317.38;4453208;32;20092;-72
2023/01/26 02:36:21;;;;;;;31.92;12.57;;;;;;;2.03;100.00;99308.97;4466042;32;20108;-72
2023/01/26 02:38:58;;;;;;;30.90;12.27;;;;;;;2.02;100.00;99302.13;4466017;32;20127;-72
2023/01/26 02:44:12;;;;;;;29.80;12.18;;;;;;;1.99;100.00;99291.94;4455175;32;20108;-72
2023/01/26 02:46:40;;;;;;;28.70;12.98;;;;;;;1.96;100.00;99292.91;4523035;31;20464;-72
2023/01/26 02:51:53;;;;;;;27.27;11.75;;;;;;;2.00;100.00;99284.13;4531989;31;20079;-72
2023/01/26 02:57:07;;;;;;;27.10;12.48;;;;;;;1.96;100.00;99272.25;4531779;31;20110;-72
2023/01/26 02:59:34;;;;;;;24.40;12.45;;;;;;;1.81;100.00;99267.78;4533669;31;20095;-72
2023/01/26 03:02:01;;;;;;;28.48;12.50;;;;;;;1.76;100.00;99266.22;4532443;31;20115;-72
2023/01/26 03:04:29;;;;;;;31.33;12.63;;;;;;;1.70;100.00;99265.69;4532615;31;20099;-72
2023/01/26 03:06:56;;;;;;;31.33;12.35;;;;;;;1.63;100.00;99254.78;4533729;31;20396;-72
2023/01/26 03:09:24;;;;;;;26.20;11.32;;;;;;;1.58;100.00;99257.56;4531220;31;20471;-72
2023/01/26 03:11:52;;;;;;;30.73;12.40;;;;;;;1.50;100.00;99254.50;4517867;31;20088;-72
2023/01/26 03:14:19;;;;;;;28.45;11.95;;;;;;;1.58;100.00;99252.41;4517665;31;20151;-72
2023/01/26 03:16:48;;;;;;;31.08;11.90;;;;;;;1.68;100.00;99259.72;4517976;31;20095;-72
2023/01/26 03:27:46;;;;;;;29.02;11.43;;;;;;;1.78;100.00;99245.50;4533944;31;20113;-72
2023/01/26 03:30:16;;;;;;;29.23;11.23;;;;;;;1.81;100.00;99236.78;4533599;31;20470;-72
2023/01/26 03:32:44;;;;;;;30.02;12.10;;;;;;;1.77;100.00;99236.06;4533804;31;20095;-72
2023/01/26 03:35:21;;;;;;;26.30;11.85;;;;;;;1.76;100.00;99230.06;4518977;31;20102;-72
2023/01/26 03:37:53;;;;;;;27.95;12.70;;;;;;;1.79;100.00;99229.09;4533521;31;20434;-72
2023/01/26 03:56:58;;;;;;;24.67;11.98;;;;;;;1.44;100.00;99213.47;4533675;31;20094;-72
2023/01/26 03:59:37;;;;;;;25.27;11.80;;;;;;;1.47;100.00;99213.31;4533470;31;20126;-72
2023/01/26 04:10:27;;;;;;;24.80;11.43;;;;;;;1.47;100.00;99207.28;4523592;31;20536;-72
2023/01/26 04:21:26;;;;;;;27.73;11.57;;;;;;;1.45;100.00;99209.13;4517974;31;20456;-72
2023/01/26 04:23:56;;;;;;;24.05;10.57;;;;;;;1.46;100.00;99198.72;4533625;31;20113;-72
2023/01/26 04:26:25;;;;;;;24.02;10.82;;;;;;;1.36;100.00;99200.91;4533302;31;20527;-72
2023/01/26 04:28:53;;;;;;;28.02;12.52;;;;;;;1.24;100.00;99198.84;4533403;31;20082;-72
2023/01/26 04:31:21;;;;;;;26.05;11.75;;;;;;;1.24;100.00;99201.41;4533577;31;20167;-72
2023/01/26 04:33:48;;;;;;;23.48;11.32;;;;;;;1.28;100.00;99194.38;4533315;31;20159;-73
2023/01/26 04:36:16;;;;;;;23.65;10.73;;;;;;;1.28;100.00;99197.78;4533308;31;20091;-72
2023/01/26 04:38:43;;;;;;;26.12;11.05;;;;;;;1.29;100.00;99196.03;4533169;31;20133;-72
2023/01/26 04:41:11;;;;;;;26.48;10.45;;;;;;;1.22;100.00;99187.75;4533359;31;20099;-72
2023/01/26 04:43:39;;;;;;;28.27;11.15;;;;;;;1.30;100.00;99192.56;4533258;31;20164;-72
2023/01/26 04:46:07;;;;;;;27.25;10.10;;;;;;;1.32;100.00;99193.34;4532763;31;20136;-72
2023/01/26 04:48:35;;;;;;;23.50;10.43;;;;;;;1.40;100.00;99178.34;4532130;31;20146;-72
2023/01/26 04:51:07;;;;;;;24.42;10.35;;;;;;;1.40;100.00;99181.75;4532991;31;20096;-72
2023/01/26 04:53:34;;;;;;;20.08;9.15;;;;;;;1.50;100.00;99183.91;4532107;31;20103;-72
2023/01/26 04:56:02;;;;;;;21.87;9.15;;;;;;;1.47;100.00;99186.66;4533190;31;20159;-72
2023/01/26 04:58:29;;;;;;;18.20;8.80;;;;;;;1.43;100.00;99185.97;4533193;31;20107;-72
2023/01/26 05:00:57;;;;;;;23.00;9.80;;;;;;;1.47;100.00;99179.75;4533036;31;20122;-72
2023/01/26 05:03:25;;;;;;;23.05;9.32;;;;;;;1.50;100.00;99177.03;4533017;31;20087;-72
2023/01/26 05:05:53;;;;;;;19.67;8.52;;;;;;;1.61;100.00;99186.03;4533095;31;20099;-72
2023/01/26 05:08:22;;;;;;;22.27;9.30;;;;;;;1.62;100.00;99182.53;4533026;31;20151;-72
2023/01/26 05:10:50;;;;;;;17.85;8.05;;;;;;;1.71;100.00;99179.53;4521367;31;20525;-72
2023/01/26 05:13:18;;;;;;;20.30;8.63;;;;;;;1.62;100.00;99182.53;4517121;31;20122;-72
2023/01/26 05:15:47;;;;;;;19.73;9.18;;;;;;;1.61;100.00;99183.47;4517176;31;20084;-72
2023/01/26 05:18:14;;;;;;;21.33;8.75;;;;;;;1.41;100.00;99177.47;4515475;31;20094;-72
2023/01/26 05:20:42;;;;;;;23.27;9.73;;;;;;;1.33;100.00;99171.78;4516416;31;20096;-73
2023/01/26 05:23:09;;;;;;;22.73;9.02;;;;;;;1.43;100.00;99173.03;4529275;31;20127;-73
2023/01/26 05:25:38;;;;;;;21.73;9.32;;;;;;;1.24;100.00;99179.03;4532745;31;20095;-73
2023/01/26 05:28:06;;;;;;;19.92;8.50;;;;;;;1.30;100.00;99183.06;4532237;31;20102;-73
2023/01/26 05:30:34;;;;;;;18.75;8.63;;;;;;;1.39;100.00;99174.94;4533044;31;20099;-72
2023/01/26 05:33:06;;;;;;;24.50;9.10;;;;;;;1.45;100.00;99172.97;4533070;31;20091;-73
2023/01/26 05:35:34;;;;;;;18.60;8.85;;;;;;;1.54;100.00;99172.56;4531550;31;20158;-73
2023/01/26 05:38:02;;;;;;;18.95;9.38;;;;;;;1.62;100.00;99179.94;4532249;31;20158;-73
2023/01/26 05:40:30;;;;;;;21.35;10.80;;;;;;;1.52;100.00;99174.38;4532472;31;20125;-72
2023/01/26 05:42:57;;;;;;;21.65;9.45;;;;;;;1.53;100.00;99179.47;4532496;31;20117;-73
2023/01/26 05:45:26;;;;;;;20.00;9.82;;;;;;;1.56;100.00;99183.63;4532592;31;20488;-71
2023/01/26 05:47:54;;;;;;;21.67;9.80;;;;;;;1.63;100.00;99184.22;4532695;31;20163;-71
2023/01/26 05:50:21;;;;;;;26.62;10.07;;;;;;;1.63;100.00;99186.81;4530929;31;20113;-72
2023/01/26 05:53:05;;;;;;;26.27;10.35;;;;;;;1.62;100.00;99188.56;4532413;31;20087;-71
2023/01/26 05:55:34;;;;;;;19.15;9.18;;;;;;;1.71;100.00;99187.28;4532536;31;20396;-72
2023/01/26 05:58:02;;;;;;;24.42;9.20;;;;;;;1.66;100.00;99190.06;4532608;31;20547;-73
2023/01/26 06:00:29;;;;;;;22.40;9.82;;;;;;;1.61;100.00;99188.62;4532534;31;20505;-72
2023/01/26 06:02:57;;;;;;;20.50;9.93;;;;;;;1.46;100.00;99190.97;4511344;31;20191;-72
2023/01/26 06:05:25;;;;;;;23.52;9.88;;;;;;;1.42;100.00;99189.44;4501602;31;20472;-73
2023/01/26 06:07:53;;;;;;;22.70;10.43;;;;;;;1.45;100.00;99183.31;4501515;31;20155;-72
2023/01/26 06:10:21;;;;;;;26.62;10.18;;;;;;;1.39;100.00;99182.69;4506089;31;20103;-72
2023/01/26 06:12:50;;;;;;;34.85;9.40;;;;;;;1.39;100.00;99179.25;4502794;31;20130;-72
2023/01/26 06:15:18;;;;;;;24.42;10.63;;;;;;;1.36;100.00;99179.38;4503026;31;20171;-72
2023/01/26 06:17:46;;;;;;;24.75;10.73;;;;;;;1.33;100.00;99180.38;4496224;31;20159;-72
2023/01/26 06:20:13;;;;;;;26.98;10.50;;;;;;;1.21;100.00;99175.75;4497241;31;20261;-73
2023/01/26 06:22:41;;;;;;;23.77;10.15;;;;;;;1.15;100.00;99181.19;4509400;31;20103;-73
2023/01/26 06:25:09;;;;;;;25.35;10.27;;;;;;;1.20;100.00;99182.66;4497234;31;20116;-73
2023/01/26 06:27:40;;;;;;;22.27;9.27;;;;;;;1.13;100.00;99180.41;4504107;31;20095;-73
2023/01/26 06:30:10;;;;;;;26.35;10.55;;;;;;;1.19;100.00;99178.37;4509768;31;20122;-72
2023/01/26 06:32:39;;;;;;;27.45;10.40;;;;;;;1.28;100.00;99174.56;4515350;31;20507;-72
2023/01/26 06:35:08;;;;;;;18.65;9.23;;;;;;;1.23;100.00;99185.09;4508896;31;20187;-71
2023/01/26 06:37:35;;;;;;;20.10;9.38;;;;;;;1.31;100.00;99181.34;4507086;31;20095;-73
2023/01/26 06:40:03;;;;;;;24.20;8.38;;;;;;;1.37;100.00;99175.91;4510940;31;20112;-73
2023/01/26 06:42:30;;;;;;;17.00;8.50;;;;;;;1.42;100.00;99171.38;4514546;31;20126;-76
2023/01/26 06:44:58;;;;;;;21.95;9.30;;;;;;;1.34;100.00;99181.22;4501081;31;20096;-76
2023/01/26 06:47:26;;;;;;;21.02;9.43;;;;;;;1.32;100.00;99170.13;4505414;31;20472;-73
2023/01/26 06:49:54;;;;;;;21.40;9.60;;;;;;;1.34;100.00;99176.03;4502022;31;20138;-73
2023/01/26 06:52:28;;;;;;;24.83;8.55;;;;;;;1.21;100.00;99170.59;4500814;31;20585;-78
2023/01/26 06:54:57;;;;;;;18.90;9.13;;;;;;;1.14;100.00;99172.59;4510962;31;20084;-77
2023/01/26 06:57:25;;;;;;;21.40;8.90;;;;;;;1.09;100.00;99168.53;4511292;31;20096;-78
2023/01/26 06:59:53;;;;;;;28.83;8.88;;;;;;;1.20;100.00;99169.75;4517832;31;20098;-77
2023/01/26 07:02:21;;;;;;;22.00;9.85;;;;;;;1.19;100.00;99168.06;4527016;31;20095;-77
2023/01/26 07:04:50;;;;;;;22.83;9.95;;;;;;;1.19;100.00;99170.66;4517503;31;20143;-75
2023/01/26 07:07:18;;;;;;;23.87;8.65;;;;;;;1.22;100.00;99164.53;4515290;31;20758;-76
2023/01/26 07:09:46;;;;;;;22.05;9.43;;;;;;;1.30;100.00;99169.34;4516841;31;20107;-74
2023/01/26 07:12:14;;;;;;;24.58;9.82;;;;;;;1.23;100.00;99161.03;4517267;31;20167;-74
2023/01/26 07:14:41;;;;;;;20.75;9.18;;;;;;;1.04;100.00;99169.56;4521817;31;20096;-78
2023/01/26 07:17:08;;;;;;;23.23;9.55;;;;;;;1.03;100.00;99165.34;4520047;31;20122;-75
2023/01/26 07:19:36;;;;;;;18.25;8.68;;;;;;;0.91;100.00;99163.31;4528625;31;20099;-74
2023/01/26 07:22:03;;;;;;;18.35;9.10;;;;;;;1.02;100.00;99166.25;4525133;31;20462;-76
2023/01/26 07:24:30;;;;;;;19.40;8.20;;;;;;;1.05;100.00;99160.13;4530937;31;20103;-76
2023/01/26 07:26:58;;;;;;;20.98;8.93;;;;;;;1.06;100.00;99164.38;4529244;31;20111;-75
2023/01/26 07:29:25;;;;;;;20.52;9.20;;;;;;;1.03;100.00;99156.75;4530642;31;20104;-74
2023/01/26 07:31:52;;;;;;;28.00;10.63;;;;;;;1.06;100.00;99162.63;4517254;31;20900;-75
2023/01/26 07:34:20;;;;;;;21.60;9.60;;;;;;;1.02;100.00;99162.81;4518125;31;20099;-72
2023/01/26 07:36:50;;;;;;;23.85;8.43;;;;;;;1.15;100.00;99156.22;4517639;31;20391;-74
2023/01/26 07:39:18;;;;;;;17.83;8.40;;;;;;;1.20;100.00;99164.59;4520725;31;20115;-75
2023/01/26 07:41:45;;;;;;;18.50;8.40;;;;;;;1.20;100.00;99153.44;4532506;31;20111;-76
2023/01/26 07:44:15;;;;;;;19.00;7.53;;;;;;;1.10;100.00;99160.72;4531097;31;20091;-74
2023/01/26 07:46:42;;;;;;;20.42;8.05;;;;;;;1.22;100.00;99149.88;4523522;31;20098;-74
2023/01/26 07:49:12;;;;;;;17.92;8.13;;;;;;;1.22;100.00;99149.88;4531734;31;20099;-75
2023/01/26 07:51:39;;;;;;;19.85;8.35;;;;;;;1.22;100.00;99152.44;4527389;31;20178;-75
2023/01/26 07:54:09;;;;;;;22.20;8.57;;;;;;;1.35;100.00;99157.91;4523292;31;20170;-73
2023/01/26 07:56:37;;;;;;;20.17;8.63;;;;;;;1.28;100.00;99155.69;4521123;31;20477;-73
2023/01/26 07:59:04;;;;;;;23.02;7.82;;;;;;;1.34;100.00;99155.41;4518905;31;20119;-73
2023/01/26 08:01:31;;;;;;;19.40;8.18;;;;;;;1.45;100.00;99163.47;4515672;31;20579;-72
2023/01/26 08:03:58;;;;;;;20.05;7.82;;;;;;;1.33;100.00;99156.28;4515900;31;20152;-73
2023/01/26 08:06:25;;;;;;;22.30;7.85;;;;;;;1.34;100.00;99152.81;4518516;31;20256;-70
2023/01/26 08:08:52;;;;;;;18.30;7.75;;;;;;;1.45;100.00;99152.31;4525567;31;20103;-72
2023/01/26 08:11:22;;;;;;;17.12;7.87;;;;;;;1.37;100.00;99148.34;4520723;31;20756;-72
2023/01/26 08:13:49;;;;;;;20.00;8.25;;;;;;;1.51;100.00;99152.03;4521230;31;20092;-72
2023/01/26 08:16:16;;;;;;;18.77;8.15;;;;;;;1.46;100.00;99152.25;4523249;31;20125;-70
2023/01/26 08:18:45;;;;;;;21.05;9.27;;;;;;;1.47;100.00;99150.50;4519384;31;20143;-71
2023/01/26 08:21:14;;;;;;;21.73;8.80;;;;;;;1.38;100.00;99151.78;4520308;31;20088;-73
2023/01/26 08:23:41;;;;;;;20.17;9.05;;;;;;;1.37;100.00;99155.25;4521032;31;20096;-70
2023/01/26 08:26:11;;;;;;;18.67;8.73;;;;;;;1.51;100.00;99147.72;4515818;31;20095;-70
2023/01/26 08:28:38;;;;;;;18.98;9.25;;;;;;;1.57;100.00;99147.41;4523155;31;20117;-71
2023/01/26 08:31:11;;;;;;;20.73;9.10;;;;;;;1.69;100.00;99151.19;4523575;31;20090;-69
2023/01/26 08:33:42;;;;;;;18.60;8.30;;;;;;;1.81;100.00;99154.13;4516261;31;20096;-70
2023/01/26 08:36:11;;;;;;;23.60;8.95;;;;;;;1.94;100.00;99153.47;4517775;31;20118;-71
2023/01/26 08:38:39;;;;;;;18.92;8.45;;;;;;;2.09;100.00;99156.19;4520344;31;20141;-70
2023/01/26 08:41:07;;;;;;;26.90;9.45;;;;;;;2.08;100.00;99157.13;4514838;31;20174;-69
2023/01/26 08:43:35;;;;;;;22.10;8.52;;;;;;;2.10;100.00;99152.72;4524269;31;20079;-69
2023/01/26 08:46:03;;;;;;;19.08;7.53;;;;;;;2.04;100.00;99153.84;4533181;31;20106;-71
2023/01/26 08:48:30;;;;;;;18.75;8.57;;;;;;;1.78;100.00;99153.34;4517008;31;20516;-71
2023/01/26 08:50:59;;;;;;;19.98;7.65;;;;;;;1.75;100.00;99150.06;4517226;31;175711;-71
2023/01/26 08:53:30;;;;;;;21.62;8.38;;;;;;;1.72;100.00;99143.28;4529871;31;20122;-71
2023/01/26 08:56:00;;;;;;;19.30;8.10;;;;;;;1.62;100.00;99148.97;4515015;31;20088;-70
2023/01/26 08:58:28;;;;;;;16.67;7.15;;;;;;;1.67;100.00;99147.03;4519497;31;20182;-71
2023/01/26 09:00:55;;;;;;;19.65;7.85;;;;;;;1.73;100.00;99144.16;4520758;31;20100;-71
2023/01/26 09:03:22;;;;;;;18.90;7.25;;;;;;;1.79;100.00;99151.59;4524082;31;20103;-70
2023/01/26 09:05:50;;;;;;;19.33;7.45;;;;;;;1.48;100.00;99145.25;4521190;31;20096;-69
2023/01/26 09:08:17;;;;;;;19.45;8.60;;;;;;;1.85;100.00;99151.31;4520488;31;20170;-70
2023/01/26 09:10:44;;;;;;;20.95;8.57;;;;;;;1.85;100.00;99146.16;4527851;31;20437;-70
2023/01/26 09:13:11;;;;;;;18.23;7.70;;;;;;;2.04;100.00;99158.19;4526849;31;20518;-71
2023/01/26 09:15:38;;;;;;;18.83;7.90;;;;;;;2.01;100.00;99148.00;4522751;31;20436;-71
2023/01/26 09:18:06;;;;;;;26.33;8.93;;;;;;;2.09;100.00;99153.63;4518106;31;20126;-71
2023/01/26 09:20:36;;;;;;;20.27;7.90;;;;;;;2.27;100.00;99147.56;4516417;31;20114;-71
2023/01/26 09:23:04;;;;;;;16.60;7.47;;;;;;;2.09;100.00;99149.31;4521134;31;20106;-71
2023/01/26 09:25:34;;;;;;;19.75;8.60;;;;;;;2.14;100.00;99154.25;4513135;31;20075;-68
2023/01/26 09:28:03;;;;;;;19.30;8.52;;;;;;;2.04;100.00;99148.66;4520647;31;20115;-70
2023/01/26 09:30:31;;;;;;;16.95;7.72;;;;;;;2.10;100.00;99148.37;4518845;31;20099;-71
2023/01/26 09:33:00;;;;;;;19.80;8.32;;;;;;;2.15;100.00;99143.00;4503344;31;20505;-71
2023/01/26 09:35:28;;;;;;;17.37;7.40;;;;;;;2.03;100.00;99148.75;4514992;31;20088;-71
2023/01/26 09:37:56;;;;;;;21.45;8.73;;;;;;;2.13;100.00;99144.81;4525175;31;20528;-72
2023/01/26 09:40:29;;;;;;;17.40;8.00;;;;;;;2.18;100.00;99145.44;4517819;31;20611;-71
2023/01/26 09:43:16;;;;;;;;;;;;;;;2.18;100.00;99140.28;4521731;31;20087;-70
2023/01/26 09:45:55;;;;;;;17.83;7.25;;;;;;;2.25;100.00;99143.38;4527838;31;20240;-71
2023/01/26 09:48:32;;;;;;;17.45;7.72;;;;;;;2.11;100.00;99138.91;4514186;31;20130;-72
2023/01/26 09:51:05;;;;;;;17.20;7.55;;;;;;;1.85;100.00;99138.41;4527058;31;20122;-71
2023/01/26 09:53:40;;;;;;;20.00;7.47;;;;;;;1.90;100.00;99133.84;4522659;31;20146;-71
2023/01/26 09:56:14;;;;;;;46.40;8.98;;;;;;;2.07;100.00;99134.78;4504351;31;20247;-73
2023/01/26 09:58:46;;;;;;;21.42;8.55;;;;;;;2.09;100.00;99132.94;4517312;31;20092;-74
2023/01/26 10:01:23;;;;;;;14.63;7.35;;;;;;;2.11;100.00;99131.97;4514936;31;20171;-71
2023/01/26 10:04:13;;;;;;;18.37;7.87;;;;;;;2.19;100.00;99129.00;4502635;31;20431;-71
2023/01/26 10:06:41;;;;;;;17.23;7.18;;;;;;;2.39;100.00;99112.53;4443287;32;20104;-72
2023/01/26 10:09:17;;;;;;;20.88;7.97;;;;;;;2.46;100.00;99113.03;4430898;32;20121;-71
2023/01/26 10:11:55;;;;;;;24.77;7.87;;;;;;;2.34;100.00;99104.16;4439087;32;20485;-72
2023/01/26 10:14:42;;;;;;;18.95;8.50;;;;;;;2.35;100.00;99103.25;4429117;32;20155;-74
2023/01/26 10:17:17;;;;;;;17.77;7.43;;;;;;;2.57;100.00;99105.56;4433290;32;20127;-73
2023/01/26 10:19:54;;;;;;;23.10;7.80;;;;;;;2.58;100.00;99101.25;4448591;32;20379;-70
2023/01/26 10:22:44;;;;;;;18.58;7.55;;;;;;;2.59;100.00;99096.00;4433197;32;20113;-70
2023/01/26 10:25:16;;;;;;;21.73;8.07;;;;;;;2.54;100.00;99092.78;4436281;32;20125;-69
2023/01/26 10:27:47;;;;;;;21.52;8.15;;;;;;;2.75;100.00;99084.84;4446338;32;20527;-69
2023/01/26 10:30:16;;;;;;;18.83;8.52;;;;;;;2.78;100.00;99082.09;4434971;32;20532;-69
2023/01/26 10:32:45;;;;;;;20.70;8.20;;;;;;;2.73;100.00;99078.94;4449901;32;20177;-70
2023/01/26 10:35:18;;;;;;;17.55;8.45;;;;;;;2.83;100.00;99069.75;4449690;32;20157;-70
2023/01/26 10:37:46;;;;;;;17.77;8.70;;;;;;;2.77;100.00;99070.94;4444508;32;20100;-70
2023/01/26 10:40:16;;;;;;;21.12;8.10;;;;;;;2.88;100.00;99065.19;4430969;32;20105;-68
2023/01/26 10:42:54;;;;;;;15.70;9.00;;;;;;;2.72;100.00;99064.31;4441517;31;20156;-70
2023/01/26 10:45:25;;;;;;;25.02;8.35;;;;;;;2.75;100.00;99062.41;4516379;31;20132;-70
2023/01/26 10:48:03;;;;;;;22.33;9.60;;;;;;;2.77;100.00;99059.72;4517818;31;20117;-69
2023/01/26 10:50:31;;;;;;;23.42;8.40;;;;;;;3.02;100.00;99067.03;4529000;31;20100;-70
2023/01/26 10:53:01;;;;;;;19.75;8.40;;;;;;;3.19;100.00;99058.34;4526486;31;20448;-70
2023/01/26 10:55:29;;;;;;;18.48;8.38;;;;;;;3.34;100.00;99054.91;4519380;31;20105;-70
2023/01/26 10:57:57;;;;;;;19.20;9.10;;;;;;;3.15;100.00;99055.09;4502369;31;20449;-70
2023/01/26 11:00:35;;;;;;;18.52;9.30;;;;;;;3.23;100.00;99053.88;4524807;31;20103;-71
2023/01/26 11:03:12;;;;;;;20.17;9.48;;;;;;;3.01;100.00;99052.41;4526406;31;20113;-70
2023/01/26 11:05:39;;;;;;;21.85;9.38;;;;;;;3.00;100.00;99051.59;4517391;31;20113;-67
2023/01/26 11:08:33;;;;;;;23.10;9.48;;;;;;;3.04;100.00;99039.31;4500153;31;20098;-70
2023/01/26 11:11:02;;;;;;;18.73;9.57;;;;;;;3.10;100.00;99043.31;4521307;31;20091;-70
2023/01/26 11:13:30;;;;;;;21.27;9.80;;;;;;;2.88;100.00;99044.47;4511108;31;20155;-71
2023/01/26 11:16:19;;;;;;;22.65;10.05;;;;;;;2.89;100.00;99040.97;4513920;31;20160;-70
2023/01/26 11:19:04;;;;;;;22.98;11.10;;;;;;;3.05;100.00;99038.41;4501054;31;20762;-70
2023/01/26 11:21:44;;;;;;;22.58;10.23;;;;;;;3.14;100.00;99032.72;4511028;31;20107;-72
2023/01/26 11:24:35;;;;;;;25.55;9.32;;;;;;;2.90;100.00;99032.28;4512003;31;20122;-73
2023/01/26 11:27:21;;;;;;;19.73;9.05;;;;;;;2.98;100.00;99018.94;4518029;31;20142;-73
2023/01/26 11:29:51;;;;;;;43.30;10.32;;;;;;;3.11;100.00;99013.94;4507278;31;20079;-72
2023/01/26 11:32:32;;;;;;;22.62;9.88;;;;;;;3.22;100.00;99021.94;4506404;31;20120;-73
2023/01/26 11:35:13;;;;;;;20.83;10.10;;;;;;;3.30;100.00;99019.78;4504849;31;20412;-74
2023/01/26 11:38:22;;;;;;;25.40;9.95;;;;;;;3.21;100.00;99020.28;4518035;31;20110;-73
2023/01/26 11:41:11;;;;;;;23.50;10.05;;;;;;;2.95;100.00;99016.50;4509679;31;20102;-72
2023/01/26 11:43:53;;;;;;;22.92;10.75;;;;;;;2.80;100.00;99016.44;4526756;31;21363;-71
2023/01/26 11:46:34;;;;;;;25.10;10.02;;;;;;;2.98;100.00;99009.44;4510152;31;20083;-72
2023/01/26 11:49:07;;;;;;;34.22;11.40;;;;;;;2.78;100.00;99007.91;4525378;31;20091;-71
2023/01/26 11:51:50;;;;;;;30.10;10.95;;;;;;;2.78;100.00;98999.31;4520471;31;20091;-72
2023/01/26 11:54:45;;;;;;;22.45;10.35;;;;;;;2.69;100.00;98990.28;4519499;31;20119;-71
2023/01/26 11:57:37;;;;;;;22.52;10.98;;;;;;;2.69;100.00;98984.28;4522280;31;20109;-72
2023/01/26 12:00:13;;;;;;;24.40;10.40;;;;;;;2.53;100.00;98987.69;4521720;31;20107;-74
2023/01/26 12:03:03;;;;;;;25.25;10.45;;;;;;;2.68;100.00;98978.28;4506494;31;20091;-73
2023/01/26 12:05:41;;;;;;;24.30;10.40;;;;;;;2.78;100.00;98976.03;4518420;31;20103;-74
2023/01/26 12:08:21;;;;;;;22.70;9.93;;;;;;;2.88;100.00;98971.19;4506073;31;20112;-73
2023/01/26 12:11:22;;;;;;;30.02;11.90;;;;;;;2.64;100.00;98958.66;4519484;31;20190;-72
2023/01/26 12:14:05;;;;;;;23.05;9.80;;;;;;;2.45;100.00;98963.97;4514826;31;20480;-73
2023/01/26 12:16:49;;;;;;;25.73;10.20;;;;;;;2.23;100.00;98954.75;4506741;31;20107;-74
2023/01/26 12:19:35;;;;;;;;;;;;;;;2.19;100.00;98949.84;4504350;31;20569;-72
2023/01/26 12:22:13;;;;;;;24.30;9.95;;;;;;;2.29;100.00;98948.44;4523268;31;19974;-72
2023/01/26 12:24:46;;;;;;;23.00;9.02;;;;;;;2.16;100.00;98942.25;4520457;31;20486;-72
2023/01/26 12:27:43;;;;;;;22.42;10.63;;;;;;;2.25;100.00;98946.94;4521053;31;20104;-73
2023/01/26 12:30:24;;;;;;;20.98;10.07;;;;;;;2.17;100.00;98947.34;4508639;31;20103;-73